Private Wetterstation Sandau
Wetterdaten: Dienstag, 29.05.2012
Datum Zeit Temp. A. Feuchte A. Luftdruck Regen Wind Richtung Richtung Taupunkt Windchill
29.05.2012 00:01 20,1 C 54 % 1011,7 hPa 0,0 l/m 0,0 km/h (0 Bft) W 270 10,5 C 20,1 C
29.05.2012 00:06 20,1 C 55 % 1011,7 hPa 0,0 l/m 0,0 km/h (0 Bft) W-SW 247 10,8 C 20,1 C
29.05.2012 00:11 19,9 C 54 % 1011,7 hPa 0,0 l/m 1,4 km/h (1 Bft) W-SW 247 10,3 C 19,9 C
29.05.2012 00:16 19,9 C 54 % 1011,7 hPa 0,0 l/m 1,4 km/h (1 Bft) W-SW 247 10,3 C 19,9 C
29.05.2012 00:21 19,9 C 54 % 1011,6 hPa 0,0 l/m 1,4 km/h (1 Bft) W-SW 247 10,3 C 19,9 C
29.05.2012 00:26 19,8 C 55 % 1011,6 hPa 0,0 l/m 0,0 km/h (0 Bft) W 270 10,5 C 19,8 C
29.05.2012 00:31 19,8 C 55 % 1011,7 hPa 0,0 l/m 2,5 km/h (1 Bft) W 270 10,5 C 19,8 C
29.05.2012 00:36 19,6 C 55 % 1011,6 hPa 0,0 l/m 0,0 km/h (0 Bft) W 270 10,3 C 19,6 C
29.05.2012 00:41 19,6 C 55 % 1011,7 hPa 0,0 l/m 0,0 km/h (0 Bft) W-NW 292 10,3 C 19,6 C
29.05.2012 00:46 19,5 C 55 % 1011,6 hPa 0,0 l/m 0,0 km/h (0 Bft) W-NW 292 10,2 C 19,5 C
29.05.2012 00:51 19,4 C 55 % 1011,5 hPa 0,0 l/m 1,8 km/h (1 Bft) W 270 10,1 C 19,4 C
29.05.2012 00:56 19,4 C 55 % 1011,6 hPa 0,0 l/m 3,6 km/h (1 Bft) W-NW 292 10,1 C 19,4 C
29.05.2012 01:01 19,3 C 54 % 1011,4 hPa 0,0 l/m 1,1 km/h (1 Bft) W-NW 292 9,8 C 19,3 C
29.05.2012 01:06 19,2 C 55 % 1011,4 hPa 0,0 l/m 3,2 km/h (1 Bft) W-NW 292 9,9 C 19,2 C
29.05.2012 01:11 19,2 C 55 % 1011,5 hPa 0,0 l/m 0,0 km/h (0 Bft) W-NW 292 9,9 C 19,2 C
29.05.2012 01:16 19,1 C 55 % 1011,4 hPa 0,0 l/m 0,0 km/h (0 Bft) W-NW 292 9,8 C 19,1 C
29.05.2012 01:21 18,9 C 55 % 1011,4 hPa 0,0 l/m 1,8 km/h (1 Bft) W-NW 292 9,7 C 18,9 C
29.05.2012 01:26 18,9 C 55 % 1011,4 hPa 0,0 l/m 1,1 km/h (1 Bft) W 270 9,7 C 18,9 C
29.05.2012 01:31 18,8 C 55 % 1011,3 hPa 0,0 l/m 2,2 km/h (1 Bft) NW 315 9,6 C 18,8 C
29.05.2012 01:36 18,6 C 55 % 1011,3 hPa 0,0 l/m 0,0 km/h (0 Bft) W-NW 292 9,4 C 18,6 C
29.05.2012 01:41 18,4 C 56 % 1011,4 hPa 0,0 l/m 0,0 km/h (0 Bft) N 360 9,5 C 18,4 C
29.05.2012 01:46 18,2 C 56 % 1011,4 hPa 0,0 l/m 0,0 km/h (0 Bft) W-NW 292 9,3 C 18,2 C
29.05.2012 01:51 18,1 C 56 % 1011,4 hPa 0,0 l/m 0,0 km/h (0 Bft) N-NW 337 9,2 C 18,1 C
29.05.2012 01:56 18,1 C 56 % 1011,3 hPa 0,0 l/m 2,9 km/h (1 Bft) W-NW 292 9,2 C 18,1 C
29.05.2012 02:01 18,0 C 56 % 1011,3 hPa 0,0 l/m 2,9 km/h (1 Bft) N-NW 337 9,1 C 18,0 C
29.05.2012 02:06 17,9 C 56 % 1011,3 hPa 0,0 l/m 3,2 km/h (1 Bft) NW 315 9,0 C 17,9 C
29.05.2012 02:11 17,8 C 57 % 1011,3 hPa 0,0 l/m 0,0 km/h (0 Bft) NW 315 9,2 C 17,8 C
29.05.2012 02:16 17,8 C 57 % 1011,3 hPa 0,0 l/m 2,5 km/h (1 Bft) NW 315 9,2 C 17,8 C
29.05.2012 02:21 17,8 C 57 % 1011,3 hPa 0,0 l/m 0,0 km/h (0 Bft) W 270 9,2 C 17,8 C
29.05.2012 02:26 17,7 C 57 % 1011,1 hPa 0,0 l/m 0,0 km/h (0 Bft) W-NW 292 9,1 C 17,7 C
29.05.2012 02:31 17,8 C 57 % 1011,3 hPa 0,0 l/m 0,0 km/h (0 Bft) NW 315 9,2 C 17,8 C
29.05.2012 02:36 17,8 C 57 % 1011,2 hPa 0,0 l/m 1,1 km/h (1 Bft) W-NW 292 9,2 C 17,8 C
29.05.2012 02:41 17,7 C 57 % 1011,1 hPa 0,0 l/m 2,5 km/h (1 Bft) W-NW 292 9,1 C 17,7 C
29.05.2012 02:46 17,6 C 57 % 1011,1 hPa 0,0 l/m 1,8 km/h (1 Bft) W-NW 292 9,0 C 17,6 C
29.05.2012 02:51 17,5 C 57 % 1011,1 hPa 0,0 l/m 0,0 km/h (0 Bft) NW 315 8,9 C 17,5 C
29.05.2012 02:56 17,5 C 58 % 1011,1 hPa 0,0 l/m 0,0 km/h (0 Bft) W-NW 292 9,1 C 17,5 C
29.05.2012 03:01 17,5 C 58 % 1011,2 hPa 0,0 l/m 1,1 km/h (1 Bft) W-NW 292 9,1 C 17,5 C
29.05.2012 03:06 17,5 C 58 % 1011,1 hPa 0,0 l/m 3,2 km/h (1 Bft) W-NW 292 9,1 C 17,5 C
29.05.2012 03:11 17,4 C 58 % 1011,1 hPa 0,0 l/m 4,3 km/h (1 Bft) W 270 9,1 C 17,4 C
29.05.2012 03:16 17,3 C 59 % 1011,1 hPa 0,0 l/m 2,5 km/h (1 Bft) W-NW 292 9,2 C 17,3 C
29.05.2012 03:21 17,0 C 59 % 1011,0 hPa 0,0 l/m 2,2 km/h (1 Bft) W 270 8,9 C 17,0 C
29.05.2012 03:26 16,9 C 60 % 1011,0 hPa 0,0 l/m 3,2 km/h (1 Bft) W 270 9,1 C 16,9 C
29.05.2012 03:31 16,9 C 60 % 1011,1 hPa 0,0 l/m 0,0 km/h (0 Bft) W 270 9,1 C 16,9 C
29.05.2012 03:36 16,8 C 60 % 1011,2 hPa 0,0 l/m 2,5 km/h (1 Bft) N 360 9,0 C 16,8 C
29.05.2012 03:41 16,6 C 61 % 1011,1 hPa 0,0 l/m 2,9 km/h (1 Bft) NW 315 9,0 C 16,6 C
29.05.2012 03:46 16,4 C 62 % 1011,2 hPa 0,0 l/m 2,5 km/h (1 Bft) W-NW 292 9,1 C 16,4 C
29.05.2012 03:51 16,4 C 62 % 1011,3 hPa 0,0 l/m 0,0 km/h (0 Bft) NW 315 9,1 C 16,4 C
29.05.2012 03:56 16,4 C 62 % 1011,2 hPa 0,0 l/m 2,2 km/h (1 Bft) NW 315 9,1 C 16,4 C
29.05.2012 04:01 16,4 C 62 % 1011,2 hPa 0,0 l/m 4,3 km/h (1 Bft) W-NW 292 9,1 C 16,4 C
29.05.2012 04:06 16,4 C 62 % 1011,2 hPa 0,0 l/m 2,5 km/h (1 Bft) W 270 9,1 C 16,4 C
29.05.2012 04:11 16,2 C 63 % 1011,3 hPa 0,0 l/m 2,5 km/h (1 Bft) W 270 9,1 C 16,2 C
29.05.2012 04:16 15,9 C 63 % 1011,2 hPa 0,0 l/m 2,9 km/h (1 Bft) W-NW 292 8,9 C 15,9 C
29.05.2012 04:21 15,9 C 64 % 1011,3 hPa 0,0 l/m 4,7 km/h (1 Bft) W-NW 292 9,1 C 15,9 C
29.05.2012 04:26 15,8 C 64 % 1011,3 hPa 0,0 l/m 1,4 km/h (1 Bft) W 270 9,0 C 15,8 C
29.05.2012 04:31 15,8 C 64 % 1011,3 hPa 0,0 l/m 2,2 km/h (1 Bft) W-NW 292 9,0 C 15,8 C
29.05.2012 04:36 15,6 C 65 % 1011,3 hPa 0,0 l/m 2,5 km/h (1 Bft) W 270 9,0 C 15,6 C
29.05.2012 04:41 15,5 C 65 % 1011,3 hPa 0,0 l/m 5,8 km/h (2 Bft) W-NW 292 8,9 C 15,5 C
29.05.2012 04:46 15,4 C 65 % 1011,3 hPa 0,0 l/m 3,6 km/h (1 Bft) W 270 8,9 C 15,4 C
29.05.2012 04:51 15,4 C 65 % 1011,2 hPa 0,0 l/m 4,0 km/h (1 Bft) W-NW 292 8,9 C 15,4 C
29.05.2012 04:56 15,3 C 66 % 1011,2 hPa 0,0 l/m 6,1 km/h (2 Bft) W-NW 292 9,0 C 15,3 C
29.05.2012 05:01 15,0 C 66 % 1011,3 hPa 0,0 l/m 3,6 km/h (1 Bft) NW 315 8,7 C 15,0 C
29.05.2012 05:06 14,9 C 67 % 1011,3 hPa 0,0 l/m 0,0 km/h (0 Bft) NW 315 8,8 C 14,9 C
29.05.2012 05:11 14,9 C 67 % 1011,2 hPa 0,0 l/m 1,1 km/h (1 Bft) W-NW 292 8,8 C 14,9 C
29.05.2012 05:16 14,9 C 67 % 1011,3 hPa 0,0 l/m 2,5 km/h (1 Bft) W-SW 247 8,8 C 14,9 C
29.05.2012 05:21 14,9 C 67 % 1011,2 hPa 0,0 l/m 1,8 km/h (1 Bft) W 270 8,8 C 14,9 C
29.05.2012 05:26 15,1 C 67 % 1011,1 hPa 0,0 l/m 3,6 km/h (1 Bft) NW 315 9,0 C 15,1 C
29.05.2012 05:31 15,0 C 67 % 1011,0 hPa 0,0 l/m 5,0 km/h (1 Bft) W-SW 247 8,9 C 15,0 C
29.05.2012 05:36 14,9 C 67 % 1010,9 hPa 0,0 l/m 2,2 km/h (1 Bft) W-SW 247 8,8 C 14,9 C
29.05.2012 05:41 15,2 C 68 % 1010,9 hPa 0,0 l/m 6,5 km/h (2 Bft) NW 315 9,3 C 15,2 C
29.05.2012 05:46 15,6 C 68 % 1011,0 hPa 0,0 l/m 2,2 km/h (1 Bft) W-SW 247 9,7 C 15,6 C
29.05.2012 05:51 15,9 C 67 % 1011,0 hPa 0,0 l/m 2,2 km/h (1 Bft) W-NW 292 9,8 C 15,9 C
29.05.2012 05:56 16,1 C 67 % 1011,1 hPa 0,0 l/m 4,7 km/h (1 Bft) W-SW 247 10,0 C 16,1 C
29.05.2012 06:01 16,4 C 66 % 1011,0 hPa 0,0 l/m 4,7 km/h (1 Bft) NW 315 10,0 C 16,4 C
29.05.2012 06:06 16,6 C 66 % 1011,1 hPa 0,0 l/m 2,5 km/h (1 Bft) W-SW 247 10,2 C 16,6 C
29.05.2012 06:11 16,9 C 64 % 1011,2 hPa 0,0 l/m 4,0 km/h (1 Bft) W 270 10,0 C 16,9 C
29.05.2012 06:16 17,1 C 63 % 1011,4 hPa 0,0 l/m 3,6 km/h (1 Bft) W 270 10,0 C 17,1 C
29.05.2012 06:21 17,1 C 63 % 1011,4 hPa 0,0 l/m 4,7 km/h (1 Bft) W-SW 247 10,0 C 17,1 C
29.05.2012 06:26 17,1 C 63 % 1011,4 hPa 0,0 l/m 7,6 km/h (2 Bft) W-SW 247 10,0 C 17,1 C
29.05.2012 06:31 17,1 C 63 % 1011,4 hPa 0,0 l/m 3,2 km/h (1 Bft) W 270 10,0 C 17,1 C
29.05.2012 06:36 17,1 C 63 % 1011,5 hPa 0,0 l/m 4,7 km/h (1 Bft) W-SW 247 10,0 C 17,1 C
29.05.2012 06:41 17,1 C 63 % 1011,5 hPa 0,0 l/m 4,0 km/h (1 Bft) W 270 10,0 C 17,1 C
29.05.2012 06:46 16,9 C 63 % 1011,5 hPa 0,0 l/m 6,8 km/h (2 Bft) W-SW 247 9,8 C 16,9 C
29.05.2012 06:51 16,8 C 63 % 1011,5 hPa 0,0 l/m 7,6 km/h (2 Bft) W 270 9,7 C 16,8 C
29.05.2012 06:56 16,8 C 63 % 1011,5 hPa 0,0 l/m 4,7 km/h (1 Bft) W-NW 292 9,7 C 16,8 C
29.05.2012 07:01 16,8 C 63 % 1011,4 hPa 0,0 l/m 6,1 km/h (2 Bft) W-NW 292 9,7 C 16,8 C
29.05.2012 07:06 16,7 C 63 % 1011,3 hPa 0,0 l/m 14,8 km/h (3 Bft) W-NW 292 9,6 C 16,7 C
29.05.2012 07:11 16,7 C 63 % 1011,3 hPa 0,0 l/m 6,1 km/h (2 Bft) NW 315 9,6 C 16,7 C
29.05.2012 07:16 16,8 C 64 % 1011,3 hPa 0,0 l/m 6,5 km/h (2 Bft) W-NW 292 10,0 C 16,8 C
29.05.2012 07:21 16,9 C 64 % 1011,3 hPa 0,0 l/m 10,8 km/h (2 Bft) W 270 10,0 C 16,9 C
29.05.2012 07:26 16,9 C 63 % 1011,4 hPa 0,0 l/m 12,2 km/h (2 Bft) W 270 9,8 C 16,9 C
29.05.2012 07:31 16,8 C 63 % 1011,6 hPa 0,0 l/m 8,6 km/h (2 Bft) W-NW 292 9,7 C 16,8 C
29.05.2012 07:36 16,6 C 64 % 1011,6 hPa 0,0 l/m 7,6 km/h (2 Bft) W-NW 292 9,8 C 16,6 C
29.05.2012 07:41 16,3 C 64 % 1011,6 hPa 0,0 l/m 4,7 km/h (1 Bft) W 270 9,5 C 16,3 C
29.05.2012 07:46 16,1 C 65 % 1011,7 hPa 0,0 l/m 5,8 km/h (2 Bft) NO 45 9,5 C 16,1 C
29.05.2012 07:51 15,8 C 66 % 1011,8 hPa 0,0 l/m 19,1 km/h (3 Bft) W-NW 292 9,5 C 15,8 C
29.05.2012 07:56 15,5 C 66 % 1011,8 hPa 0,0 l/m 9,7 km/h (2 Bft) W 270 9,2 C 15,5 C
29.05.2012 08:01 15,4 C 67 % 1011,8 hPa 0,0 l/m 19,1 km/h (3 Bft) N-NW 337 9,3 C 15,4 C
29.05.2012 08:06 15,4 C 67 % 1011,8 hPa 0,0 l/m 10,1 km/h (2 Bft) N-NW 337 9,3 C 15,4 C
29.05.2012 08:11 15,2 C 67 % 1011,8 hPa 0,0 l/m 2,5 km/h (1 Bft) NW 315 9,1 C 15,2 C
29.05.2012 08:16 14,9 C 68 % 1011,7 hPa 0,0 l/m 13,0 km/h (3 Bft) W-NW 292 9,0 C 14,9 C
29.05.2012 08:21 14,9 C 69 % 1011,8 hPa 0,0 l/m 5,8 km/h (2 Bft) W 270 9,3 C 14,9 C
29.05.2012 08:26 14,9 C 69 % 1011,9 hPa 0,0 l/m 5,0 km/h (1 Bft) W 270 9,3 C 14,9 C
29.05.2012 08:31 14,9 C 70 % 1011,9 hPa 0,0 l/m 10,1 km/h (2 Bft) W 270 9,5 C 14,9 C
29.05.2012 08:36 14,9 C 70 % 1011,8 hPa 0,0 l/m 5,0 km/h (1 Bft) SW 225 9,5 C 14,9 C
29.05.2012 08:41 14,9 C 70 % 1011,8 hPa 0,0 l/m 7,9 km/h (2 Bft) W 270 9,5 C 14,9 C
29.05.2012 08:46 15,0 C 70 % 1011,9 hPa 0,0 l/m 10,8 km/h (2 Bft) W-NW 292 9,6 C 15,0 C
29.05.2012 08:51 15,1 C 70 % 1012,0 hPa 0,0 l/m 13,0 km/h (3 Bft) W-NW 292 9,7 C 15,1 C
29.05.2012 08:56 14,9 C 70 % 1011,9 hPa 0,0 l/m 6,1 km/h (2 Bft) W-SW 247 9,5 C 14,9 C
29.05.2012 09:01 14,9 C 71 % 1011,9 hPa 0,0 l/m 9,4 km/h (2 Bft) W 270 9,7 C 14,9 C
29.05.2012 09:06 14,9 C 71 % 1011,9 hPa 0,0 l/m 4,0 km/h (1 Bft) W-NW 292 9,7 C 14,9 C
29.05.2012 09:11 14,9 C 71 % 1011,8 hPa 0,0 l/m 5,0 km/h (1 Bft) W-NW 292 9,7 C 14,9 C
29.05.2012 09:16 14,9 C 71 % 1011,7 hPa 0,0 l/m 9,7 km/h (2 Bft) NW 315 9,7 C 14,9 C
29.05.2012 09:21 14,9 C 71 % 1011,8 hPa 0,0 l/m 7,6 km/h (2 Bft) W-NW 292 9,7 C 14,9 C
29.05.2012 09:26 14,9 C 72 % 1011,7 hPa 0,0 l/m 11,2 km/h (2 Bft) W 270 9,9 C 14,9 C
29.05.2012 09:31 15,1 C 72 % 1011,7 hPa 0,0 l/m 13,3 km/h (3 Bft) W 270 10,1 C 15,1 C
29.05.2012 09:36 15,2 C 71 % 1011,7 hPa 0,0 l/m 14,8 km/h (3 Bft) W 270 10,0 C 15,2 C
29.05.2012 09:41 15,4 C 71 % 1011,7 hPa 0,0 l/m 9,0 km/h (2 Bft) W-SW 247 10,2 C 15,4 C
29.05.2012 09:46 15,5 C 71 % 1011,8 hPa 0,0 l/m 9,0 km/h (2 Bft) NW 315 10,3 C 15,5 C
29.05.2012 09:51 15,6 C 71 % 1011,7 hPa 0,0 l/m 8,3 km/h (2 Bft) W 270 10,4 C 15,6 C
29.05.2012 09:56 15,8 C 70 % 1011,8 hPa 0,0 l/m 16,6 km/h (3 Bft) W-NW 292 10,3 C 15,8 C
29.05.2012 10:01 15,8 C 70 % 1011,8 hPa 0,0 l/m 6,1 km/h (2 Bft) W 270 10,3 C 15,8 C
29.05.2012 10:06 15,8 C 70 % 1011,8 hPa 0,0 l/m 8,6 km/h (2 Bft) W 270 10,3 C 15,8 C
29.05.2012 10:11 15,8 C 70 % 1011,7 hPa 0,0 l/m 12,2 km/h (2 Bft) W 270 10,3 C 15,8 C
29.05.2012 10:16 15,9 C 70 % 1011,7 hPa 0,0 l/m 19,1 km/h (3 Bft) W 270 10,4 C 15,9 C
29.05.2012 10:21 16,3 C 70 % 1011,8 hPa 0,0 l/m 10,8 km/h (2 Bft) W-SW 247 10,8 C 16,3 C
29.05.2012 10:26 16,6 C 68 % 1011,7 hPa 0,0 l/m 7,2 km/h (2 Bft) W 270 10,7 C 16,6 C
29.05.2012 10:31 16,9 C 67 % 1011,6 hPa 0,0 l/m 7,6 km/h (2 Bft) W-SW 247 10,7 C 16,9 C
29.05.2012 10:36 17,1 C 67 % 1011,6 hPa 0,0 l/m 14,8 km/h (3 Bft) NW 315 10,9 C 17,1 C
29.05.2012 10:41 17,3 C 66 % 1011,6 hPa 0,0 l/m 6,1 km/h (2 Bft) W 270 10,9 C 17,3 C
29.05.2012 10:46 17,5 C 65 % 1011,5 hPa 0,0 l/m 12,2 km/h (2 Bft) W-NW 292 10,8 C 17,5 C
29.05.2012 10:51 17,5 C 64 % 1011,6 hPa 0,0 l/m 11,9 km/h (2 Bft) SW 225 10,6 C 17,5 C
29.05.2012 10:56 17,6 C 64 % 1011,6 hPa 0,0 l/m 20,2 km/h (4 Bft) W 270 10,7 C 17,6 C
29.05.2012 11:01 17,8 C 64 % 1011,7 hPa 0,0 l/m 16,9 km/h (3 Bft) W-SW 247 10,9 C 17,8 C
29.05.2012 11:06 18,1 C 63 % 1011,6 hPa 0,0 l/m 16,6 km/h (3 Bft) W 270 10,9 C 18,1 C
29.05.2012 11:11 18,3 C 62 % 1011,7 hPa 0,0 l/m 10,1 km/h (2 Bft) W 270 10,9 C 18,3 C
29.05.2012 11:16 18,5 C 61 % 1011,6 hPa 0,0 l/m 8,3 km/h (2 Bft) NW 315 10,8 C 18,5 C
29.05.2012 11:21 18,7 C 60 % 1011,6 hPa 0,0 l/m 11,2 km/h (2 Bft) W 270 10,8 C 18,7 C
29.05.2012 11:26 18,8 C 59 % 1011,7 hPa 0,0 l/m 30,6 km/h (5 Bft) W-SW 247 10,6 C 18,8 C
29.05.2012 11:31 18,9 C 58 % 1011,7 hPa 0,0 l/m 12,2 km/h (2 Bft) W-NW 292 10,5 C 18,9 C
29.05.2012 11:36 18,9 C 57 % 1011,7 hPa 0,0 l/m 16,6 km/h (3 Bft) W 270 10,2 C 18,9 C
29.05.2012 11:41 19,1 C 57 % 1011,6 hPa 0,0 l/m 15,5 km/h (3 Bft) W 270 10,4 C 19,1 C
29.05.2012 11:46 19,2 C 54 % 1011,7 hPa 0,0 l/m 11,2 km/h (2 Bft) W 270 9,7 C 19,2 C
29.05.2012 11:51 19,4 C 54 % 1011,6 hPa 0,0 l/m 18,4 km/h (3 Bft) W 270 9,8 C 19,4 C
29.05.2012 11:56 19,6 C 52 % 1011,7 hPa 0,0 l/m 12,6 km/h (3 Bft) W 270 9,5 C 19,6 C
29.05.2012 12:01 19,8 C 51 % 1011,7 hPa 0,0 l/m 9,7 km/h (2 Bft) W-NW 292 9,4 C 19,8 C
29.05.2012 12:06 19,9 C 50 % 1011,6 hPa 0,0 l/m 19,8 km/h (3 Bft) W-SW 247 9,2 C 19,9 C
29.05.2012 12:11 20,0 C 49 % 1011,6 hPa 0,0 l/m 14,4 km/h (3 Bft) W 270 9,0 C 20,0 C
29.05.2012 12:16 20,1 C 47 % 1011,6 hPa 0,0 l/m 20,9 km/h (4 Bft) W-NW 292 8,4 C 20,1 C
29.05.2012 12:21 20,3 C 46 % 1011,5 hPa 0,0 l/m 22,7 km/h (4 Bft) W 270 8,3 C 20,3 C
29.05.2012 12:26 20,3 C 45 % 1011,7 hPa 0,0 l/m 14,0 km/h (3 Bft) NW 315 8,0 C 20,3 C
29.05.2012 12:31 20,4 C 45 % 1011,6 hPa 0,0 l/m 21,2 km/h (4 Bft) W 270 8,1 C 20,4 C
29.05.2012 12:36 20,6 C 44 % 1011,6 hPa 0,0 l/m 6,8 km/h (2 Bft) W 270 7,9 C 20,6 C
29.05.2012 12:41 20,8 C 43 % 1011,5 hPa 0,0 l/m 25,6 km/h (4 Bft) W-NW 292 7,8 C 20,8 C
29.05.2012 12:46 20,9 C 42 % 1011,5 hPa 0,0 l/m 22,7 km/h (4 Bft) W-NW 292 7,5 C 20,9 C
29.05.2012 12:51 20,9 C 41 % 1011,6 hPa 0,0 l/m 5,0 km/h (1 Bft) N-NW 337 7,2 C 20,9 C
29.05.2012 12:56 21,0 C 41 % 1011,6 hPa 0,0 l/m 9,7 km/h (2 Bft) NW 315 7,2 C 21,0 C
29.05.2012 13:01 21,1 C 41 % 1011,5 hPa 0,0 l/m 22,7 km/h (4 Bft) W 270 7,3 C 21,1 C
29.05.2012 13:06 21,3 C 40 % 1011,5 hPa 0,0 l/m 4,7 km/h (1 Bft) NW 315 7,1 C 21,3 C
29.05.2012 13:11 21,5 C 40 % 1011,6 hPa 0,0 l/m 8,3 km/h (2 Bft) W 270 7,3 C 21,5 C
29.05.2012 13:16 21,6 C 39 % 1011,5 hPa 0,0 l/m 2,9 km/h (1 Bft) O-NO 67 7,0 C 21,6 C
29.05.2012 13:21 21,9 C 36 % 1011,6 hPa 0,0 l/m 18,4 km/h (3 Bft) W-NW 292 6,1 C 21,9 C
29.05.2012 13:26 21,9 C 36 % 1011,6 hPa 0,0 l/m 4,3 km/h (1 Bft) W-SW 247 6,1 C 21,9 C
29.05.2012 13:31 21,8 C 36 % 1011,5 hPa 0,0 l/m 11,2 km/h (2 Bft) W-NW 292 6,1 C 21,8 C
29.05.2012 13:36 21,8 C 34 % 1011,5 hPa 0,0 l/m 10,8 km/h (2 Bft) W-NW 292 5,2 C 21,8 C
29.05.2012 13:41 21,8 C 35 % 1011,4 hPa 0,0 l/m 8,3 km/h (2 Bft) W-NW 292 5,7 C 21,8 C
29.05.2012 13:46 21,9 C 34 % 1011,6 hPa 0,0 l/m 7,2 km/h (2 Bft) NW 315 5,3 C 21,9 C
29.05.2012 13:51 21,8 C 32 % 1011,7 hPa 0,0 l/m 6,8 km/h (2 Bft) N-NO 22 4,4 C 21,8 C
29.05.2012 13:56 21,5 C 32 % 1011,7 hPa 0,0 l/m 12,2 km/h (2 Bft) NW 315 4,1 C 21,5 C
29.05.2012 14:01 21,3 C 33 % 1011,9 hPa 0,0 l/m 10,8 km/h (2 Bft) N 360 4,4 C 21,3 C
29.05.2012 14:06 21,3 C 34 % 1011,8 hPa 0,0 l/m 9,4 km/h (2 Bft) NO 45 4,8 C 21,3 C
29.05.2012 14:11 21,2 C 33 % 1011,9 hPa 0,0 l/m 6,1 km/h (2 Bft) W-NW 292 4,3 C 21,2 C
29.05.2012 14:16 21,2 C 34 % 1011,8 hPa 0,0 l/m 7,2 km/h (2 Bft) N-NO 22 4,7 C 21,2 C
29.05.2012 14:21 21,3 C 32 % 1011,8 hPa 0,0 l/m 12,6 km/h (3 Bft) NO 45 3,9 C 21,3 C
29.05.2012 14:26 21,1 C 33 % 1011,9 hPa 0,0 l/m 25,6 km/h (4 Bft) NO 45 4,2 C 21,1 C
29.05.2012 14:31 21,1 C 33 % 1012,0 hPa 0,0 l/m 10,8 km/h (2 Bft) N 360 4,2 C 21,1 C
29.05.2012 14:36 21,2 C 33 % 1012,0 hPa 0,0 l/m 16,2 km/h (3 Bft) NO 45 4,3 C 21,2 C
29.05.2012 14:41 21,2 C 32 % 1011,9 hPa 0,0 l/m 10,4 km/h (2 Bft) N 360 3,8 C 21,2 C
29.05.2012 14:46 21,1 C 32 % 1011,9 hPa 0,0 l/m 7,9 km/h (2 Bft) O 90 3,8 C 21,1 C
29.05.2012 14:51 21,3 C 31 % 1012,0 hPa 0,0 l/m 7,9 km/h (2 Bft) N 360 3,5 C 21,3 C
29.05.2012 14:56 21,2 C 31 % 1011,9 hPa 0,0 l/m 14,4 km/h (3 Bft) NW 315 3,4 C 21,2 C
29.05.2012 15:01 21,1 C 31 % 1011,9 hPa 0,0 l/m 21,6 km/h (4 Bft) NW 315 3,3 C 21,1 C
29.05.2012 15:06 21,2 C 32 % 1012,1 hPa 0,0 l/m 5,0 km/h (1 Bft) NO 45 3,8 C 21,2 C
29.05.2012 15:11 21,4 C 32 % 1012,2 hPa 0,0 l/m 7,9 km/h (2 Bft) NO 45 4,0 C 21,4 C
29.05.2012 15:16 21,4 C 32 % 1012,2 hPa 0,0 l/m 14,8 km/h (3 Bft) N 360 4,0 C 21,4 C
29.05.2012 15:21 21,4 C 31 % 1012,1 hPa 0,0 l/m 4,7 km/h (1 Bft) N 360 3,6 C 21,4 C
29.05.2012 15:26 21,4 C 32 % 1012,1 hPa 0,0 l/m 9,0 km/h (2 Bft) O-NO 67 4,0 C 21,4 C
29.05.2012 15:31 21,5 C 31 % 1012,1 hPa 0,0 l/m 14,8 km/h (3 Bft) N 360 3,7 C 21,5 C
29.05.2012 15:36 21,4 C 32 % 1012,1 hPa 0,0 l/m 12,2 km/h (2 Bft) W-NW 292 4,0 C 21,4 C
29.05.2012 15:41 21,7 C 32 % 1012,0 hPa 0,0 l/m 19,8 km/h (3 Bft) NO 45 4,3 C 21,7 C
29.05.2012 15:46 21,8 C 32 % 1012,1 hPa 0,0 l/m 4,3 km/h (1 Bft) N-NO 22 4,4 C 21,8 C
29.05.2012 15:51 21,9 C 32 % 1012,1 hPa 0,0 l/m 7,2 km/h (2 Bft) NW 315 4,5 C 21,9 C
29.05.2012 15:56 21,9 C 31 % 1012,1 hPa 0,0 l/m 6,8 km/h (2 Bft) N-NO 22 4,0 C 21,9 C
29.05.2012 16:01 21,8 C 33 % 1012,1 hPa 0,0 l/m 15,5 km/h (3 Bft) NW 315 4,8 C 21,8 C
29.05.2012 16:06 22,1 C 32 % 1012,1 hPa 0,0 l/m 15,1 km/h (3 Bft) W 270 4,6 C 22,1 C
29.05.2012 16:11 22,3 C 32 % 1012,1 hPa 0,0 l/m 16,6 km/h (3 Bft) NW 315 4,8 C 22,3 C
29.05.2012 16:16 22,6 C 33 % 1012,1 hPa 0,0 l/m 12,2 km/h (2 Bft) W-NW 292 5,5 C 22,6 C
29.05.2012 16:21 22,8 C 33 % 1012,2 hPa 0,0 l/m 9,7 km/h (2 Bft) W-NW 292 5,7 C 22,8 C
29.05.2012 16:26 22,8 C 32 % 1012,3 hPa 0,0 l/m 6,1 km/h (2 Bft) W-SW 247 5,2 C 22,8 C
29.05.2012 16:31 22,5 C 33 % 1012,1 hPa 0,0 l/m 7,2 km/h (2 Bft) W-NW 292 5,4 C 22,5 C
29.05.2012 16:36 22,6 C 33 % 1012,1 hPa 0,0 l/m 10,4 km/h (2 Bft) W 270 5,5 C 22,6 C
29.05.2012 16:41 22,4 C 34 % 1012,1 hPa 0,0 l/m 26,6 km/h (4 Bft) W-NW 292 5,8 C 22,4 C
29.05.2012 16:46 22,5 C 33 % 1012,0 hPa 0,0 l/m 2,5 km/h (1 Bft) N-NW 337 5,4 C 22,5 C
29.05.2012 16:51 22,6 C 33 % 1012,0 hPa 0,0 l/m 16,9 km/h (3 Bft) W-NW 292 5,5 C 22,6 C
29.05.2012 16:56 22,5 C 33 % 1012,1 hPa 0,0 l/m 9,4 km/h (2 Bft) N-NO 22 5,4 C 22,5 C
29.05.2012 17:01 22,1 C 34 % 1012,1 hPa 0,0 l/m 4,0 km/h (1 Bft) N-NO 22 5,5 C 22,1 C
29.05.2012 17:06 21,6 C 35 % 1012,3 hPa 0,0 l/m 8,3 km/h (2 Bft) NW 315 5,5 C 21,6 C
29.05.2012 17:11 21,2 C 36 % 1012,3 hPa 0,0 l/m 3,6 km/h (1 Bft) S-SW 202 5,5 C 21,2 C
29.05.2012 17:16 21,1 C 36 % 1012,4 hPa 0,0 l/m 14,4 km/h (3 Bft) W-NW 292 5,4 C 21,1 C
29.05.2012 17:21 21,3 C 37 % 1012,4 hPa 0,0 l/m 9,4 km/h (2 Bft) NO 45 6,0 C 21,3 C
29.05.2012 17:26 20,9 C 37 % 1012,6 hPa 0,0 l/m 8,3 km/h (2 Bft) N-NW 337 5,7 C 20,9 C
29.05.2012 17:31 20,7 C 38 % 1012,6 hPa 0,0 l/m 9,4 km/h (2 Bft) O 90 5,9 C 20,7 C
29.05.2012 17:36 20,5 C 38 % 1012,6 hPa 0,0 l/m 18,0 km/h (3 Bft) N 360 5,7 C 20,5 C
29.05.2012 17:41 19,9 C 39 % 1012,5 hPa 0,0 l/m 16,9 km/h (3 Bft) N 360 5,5 C 19,9 C
29.05.2012 17:46 19,9 C 41 % 1012,4 hPa 0,0 l/m 7,9 km/h (2 Bft) W-NW 292 6,3 C 19,9 C
29.05.2012 17:51 20,1 C 40 % 1012,4 hPa 0,0 l/m 9,7 km/h (2 Bft) N-NO 22 6,1 C 20,1 C
29.05.2012 17:56 19,9 C 41 % 1012,5 hPa 0,0 l/m 8,3 km/h (2 Bft) N-NW 337 6,3 C 19,9 C
29.05.2012 18:01 19,8 C 41 % 1012,5 hPa 0,0 l/m 8,3 km/h (2 Bft) N-NW 337 6,2 C 19,8 C
29.05.2012 18:06 19,6 C 42 % 1012,6 hPa 0,0 l/m 9,7 km/h (2 Bft) N-NO 22 6,3 C 19,6 C
29.05.2012 18:11 19,4 C 42 % 1012,7 hPa 0,0 l/m 3,6 km/h (1 Bft) N-NW 337 6,2 C 19,4 C
29.05.2012 18:16 19,5 C 43 % 1012,7 hPa 0,0 l/m 6,1 km/h (2 Bft) NO 45 6,6 C 19,5 C
29.05.2012 18:21 19,3 C 43 % 1012,8 hPa 0,0 l/m 14,8 km/h (3 Bft) NO 45 6,4 C 19,3 C
29.05.2012 18:26 19,1 C 43 % 1012,9 hPa 0,0 l/m 6,8 km/h (2 Bft) N-NW 337 6,2 C 19,1 C
29.05.2012 18:31 18,9 C 44 % 1012,8 hPa 0,0 l/m 5,8 km/h (2 Bft) N 360 6,4 C 18,9 C
29.05.2012 18:36 18,9 C 44 % 1012,9 hPa 0,0 l/m 11,2 km/h (2 Bft) O-NO 67 6,4 C 18,9 C
29.05.2012 18:41 18,8 C 45 % 1012,9 hPa 0,0 l/m 5,0 km/h (1 Bft) N 360 6,6 C 18,8 C
29.05.2012 18:46 18,8 C 45 % 1012,9 hPa 0,0 l/m 7,2 km/h (2 Bft) W 270 6,6 C 18,8 C
29.05.2012 18:51 18,8 C 45 % 1013,1 hPa 0,0 l/m 13,0 km/h (3 Bft) N-NO 22 6,6 C 18,8 C
29.05.2012 18:56 18,6 C 46 % 1013,0 hPa 0,0 l/m 9,7 km/h (2 Bft) N-NO 22 6,8 C 18,6 C
29.05.2012 19:01 18,4 C 47 % 1012,8 hPa 0,0 l/m 6,5 km/h (2 Bft) N-NO 22 6,9 C 18,4 C
29.05.2012 19:06 18,4 C 47 % 1013,0 hPa 0,0 l/m 8,6 km/h (2 Bft) N-NO 22 6,9 C 18,4 C
29.05.2012 19:11 18,2 C 48 % 1013,1 hPa 0,0 l/m 12,2 km/h (2 Bft) N 360 7,0 C 18,2 C
29.05.2012 19:16 18,1 C 48 % 1013,1 hPa 0,0 l/m 11,9 km/h (2 Bft) N-NO 22 6,9 C 18,1 C
29.05.2012 19:21 18,1 C 49 % 1013,1 hPa 0,0 l/m 3,2 km/h (1 Bft) N-NO 22 7,2 C 18,1 C
29.05.2012 19:26 17,9 C 49 % 1013,1 hPa 0,0 l/m 14,4 km/h (3 Bft) N-NO 22 7,0 C 17,9 C
29.05.2012 19:31 17,9 C 49 % 1013,1 hPa 0,0 l/m 8,3 km/h (2 Bft) O-NO 67 7,0 C 17,9 C
29.05.2012 19:36 17,8 C 49 % 1013,3 hPa 0,0 l/m 4,0 km/h (1 Bft) N-NO 22 6,9 C 17,8 C
29.05.2012 19:41 17,8 C 50 % 1013,4 hPa 0,0 l/m 5,4 km/h (1 Bft) N-NO 22 7,2 C 17,8 C
29.05.2012 19:46 17,7 C 50 % 1013,5 hPa 0,0 l/m 10,4 km/h (2 Bft) N 360 7,1 C 17,7 C
29.05.2012 19:51 17,6 C 50 % 1013,4 hPa 0,0 l/m 5,8 km/h (2 Bft) N-NO 22 7,1 C 17,6 C
29.05.2012 19:56 17,5 C 50 % 1013,5 hPa 0,0 l/m 6,1 km/h (2 Bft) N-NW 337 7,0 C 17,5 C
29.05.2012 20:01 17,4 C 51 % 1013,5 hPa 0,0 l/m 4,0 km/h (1 Bft) N-NO 22 7,2 C 17,4 C
29.05.2012 20:06 17,3 C 51 % 1013,4 hPa 0,0 l/m 4,7 km/h (1 Bft) NO 45 7,1 C 17,3 C
29.05.2012 20:11 17,2 C 51 % 1013,6 hPa 0,0 l/m 5,8 km/h (2 Bft) NO 45 7,0 C 17,2 C
29.05.2012 20:16 17,1 C 51 % 1013,6 hPa 0,0 l/m 4,3 km/h (1 Bft) O-NO 67 6,9 C 17,1 C
29.05.2012 20:21 17,1 C 51 % 1013,6 hPa 0,0 l/m 6,1 km/h (2 Bft) O-NO 67 6,9 C 17,1 C
29.05.2012 20:26 16,9 C 51 % 1013,8 hPa 0,0 l/m 6,5 km/h (2 Bft) O-NO 67 6,7 C 16,9 C
29.05.2012 20:31 16,8 C 51 % 1013,8 hPa 0,0 l/m 12,6 km/h (3 Bft) NO 45 6,6 C 16,8 C
29.05.2012 20:36 16,6 C 51 % 1013,8 hPa 0,0 l/m 8,6 km/h (2 Bft) N-NW 337 6,4 C 16,6 C
29.05.2012 20:41 16,4 C 51 % 1013,9 hPa 0,0 l/m 2,9 km/h (1 Bft) NO 45 6,2 C 16,4 C
29.05.2012 20:46 16,4 C 51 % 1013,8 hPa 0,0 l/m 10,8 km/h (2 Bft) O-NO 67 6,2 C 16,4 C
29.05.2012 20:51 16,3 C 51 % 1013,9 hPa 0,0 l/m 6,8 km/h (2 Bft) N 360 6,1 C 16,3 C
29.05.2012 20:56 16,2 C 51 % 1013,9 hPa 0,0 l/m 6,1 km/h (2 Bft) N-NW 337 6,1 C 16,2 C
29.05.2012 21:01 16,1 C 51 % 1014,1 hPa 0,0 l/m 8,3 km/h (2 Bft) NO 45 6,0 C 16,1 C
29.05.2012 21:06 16,1 C 52 % 1014,2 hPa 0,0 l/m 1,4 km/h (1 Bft) N-NO 22 6,2 C 16,1 C
29.05.2012 21:11 16,1 C 52 % 1014,1 hPa 0,0 l/m 2,9 km/h (1 Bft) W-NW 292 6,2 C 16,1 C
29.05.2012 21:16 16,0 C 51 % 1014,2 hPa 0,0 l/m 8,3 km/h (2 Bft) N 360 5,9 C 16,0 C
29.05.2012 21:21 15,9 C 51 % 1014,2 hPa 0,0 l/m 2,2 km/h (1 Bft) N 360 5,8 C 15,9 C
29.05.2012 21:26 15,9 C 52 % 1014,3 hPa 0,0 l/m 3,2 km/h (1 Bft) N-NO 22 6,1 C 15,9 C
29.05.2012 21:31 15,9 C 52 % 1014,3 hPa 0,0 l/m 1,1 km/h (1 Bft) N-NO 22 6,1 C 15,9 C
29.05.2012 21:36 15,9 C 52 % 1014,3 hPa 0,0 l/m 0,0 km/h (0 Bft) N-NO 22 6,1 C 15,9 C
29.05.2012 21:41 15,9 C 52 % 1014,4 hPa 0,0 l/m 0,0 km/h (0 Bft) N-NW 337 6,1 C 15,9 C
29.05.2012 21:46 15,9 C 52 % 1014,4 hPa 0,0 l/m 1,1 km/h (1 Bft) N-NO 22 6,1 C 15,9 C
29.05.2012 21:51 15,9 C 52 % 1014,4 hPa 0,0 l/m 2,2 km/h (1 Bft) O-NO 67 6,1 C 15,9 C
29.05.2012 21:56 15,8 C 52 % 1014,3 hPa 0,0 l/m 3,2 km/h (1 Bft) N 360 6,0 C 15,8 C
29.05.2012 22:01 15,6 C 53 % 1014,2 hPa 0,0 l/m 2,2 km/h (1 Bft) N-NO 22 6,1 C 15,6 C
29.05.2012 22:06 15,5 C 53 % 1014,3 hPa 0,0 l/m 2,2 km/h (1 Bft) NO 45 6,0 C 15,5 C
29.05.2012 22:11 15,3 C 53 % 1014,3 hPa 0,0 l/m 4,0 km/h (1 Bft) N-NO 22 5,8 C 15,3 C
29.05.2012 22:16 15,1 C 53 % 1014,4 hPa 0,0 l/m 0,0 km/h (0 Bft) N-NO 22 5,6 C 15,1 C
29.05.2012 22:21 14,9 C 53 % 1014,5 hPa 0,0 l/m 0,0 km/h (0 Bft) N-NW 337 5,4 C 14,9 C
29.05.2012 22:26 14,9 C 53 % 1014,5 hPa 0,0 l/m 0,0 km/h (0 Bft) O-NO 67 5,4 C 14,9 C
29.05.2012 22:31 15,0 C 54 % 1014,8 hPa 0,0 l/m 0,0 km/h (0 Bft) N 360 5,8 C 15,0 C
29.05.2012 22:36 14,9 C 54 % 1014,8 hPa 0,0 l/m 0,0 km/h (0 Bft) N 360 5,7 C 14,9 C
29.05.2012 22:41 14,9 C 55 % 1014,9 hPa 0,0 l/m 0,0 km/h (0 Bft) NW 315 5,9 C 14,9 C
29.05.2012 22:46 14,9 C 55 % 1014,9 hPa 0,0 l/m 0,0 km/h (0 Bft) NO 45 5,9 C 14,9 C
29.05.2012 22:51 14,8 C 56 % 1014,9 hPa 0,0 l/m 0,0 km/h (0 Bft) N-NW 337 6,1 C 14,8 C
29.05.2012 22:56 14,9 C 56 % 1014,9 hPa 0,0 l/m 0,0 km/h (0 Bft) N-NW 337 6,2 C 14,9 C
29.05.2012 23:01 14,9 C 56 % 1014,9 hPa 0,0 l/m 0,0 km/h (0 Bft) NW 315 6,2 C 14,9 C
29.05.2012 23:06 14,9 C 57 % 1014,9 hPa 0,0 l/m 0,0 km/h (0 Bft) N 360 6,5 C 14,9 C
29.05.2012 23:11 14,9 C 57 % 1014,7 hPa 0,0 l/m 0,0 km/h (0 Bft) N 360 6,5 C 14,9 C
29.05.2012 23:16 14,9 C 57 % 1014,9 hPa 0,0 l/m 0,0 km/h (0 Bft) N-NW 337 6,5 C 14,9 C
29.05.2012 23:21 14,9 C 57 % 1014,8 hPa 0,0 l/m 1,1 km/h (1 Bft) NW 315 6,5 C 14,9 C
29.05.2012 23:26 14,9 C 58 % 1014,8 hPa 0,0 l/m 0,0 km/h (0 Bft) N-NO 22 6,7 C 14,9 C
29.05.2012 23:31 14,7 C 58 % 1014,7 hPa 0,0 l/m 0,0 km/h (0 Bft) N-NO 22 6,5 C 14,7 C
29.05.2012 23:36 14,5 C 59 % 1014,7 hPa 0,0 l/m 0,0 km/h (0 Bft) N-NO 22 6,6 C 14,5 C
29.05.2012 23:41 14,4 C 59 % 1014,9 hPa 0,0 l/m 0,0 km/h (0 Bft) NO 45 6,5 C 14,4 C
29.05.2012 23:46 14,3 C 58 % 1014,9 hPa 0,0 l/m 0,0 km/h (0 Bft) NO 45 6,2 C 14,3 C
29.05.2012 23:51 14,2 C 58 % 1014,9 hPa 0,0 l/m 0,0 km/h (0 Bft) NO 45 6,1 C 14,2 C
29.05.2012 23:56 14,1 C 59 % 1014,9 hPa 0,0 l/m 0,0 km/h (0 Bft) NO 45 6,2 C 14,1 C
_ Min-Zeit 23:56 14:51 05:36 - 00:01 - - 15:01 23:56
Minimum _ 14,1 C 31 % 1010,9 hPa - 0,0 km/h (0 Bft) - - 3,3 C 14,1 C
_ Max-Zeit 16:21 09:26 22:41 00:01 11:26 - - 11:06 16:21
Maximum _ 22,8 C 72 % 1014,9 hPa 0,0 l/m 30,6 km/h
W-SW (5 Bft)
- - 10,9 C 22,8 C
Durchschnitt _ 17,9 C 53 % 1012,2 hPa #0,0 l/m 7,0 km/h (2 Bft) W-NW - 7,8 C 17,9 C
(c) by David Heller